createdAt,value
2022-11-04T00:08:26.466Z,7247.11956
2022-11-04T00:23:28.925Z,7341.11592
2022-11-04T00:38:31.178Z,7150.97964
2022-11-04T00:53:33.517Z,7092.73231
2022-11-04T01:08:35.938Z,6860.60654
2022-11-04T01:23:38.233Z,6185.79282
2022-11-04T01:38:40.864Z,5505.83712
2022-11-04T01:53:43.152Z,5265.11681
2022-11-04T02:08:45.441Z,5240.74128
2022-11-04T02:23:47.711Z,5260.22358
2022-11-04T02:38:50.136Z,5076.23371
2022-11-04T02:53:52.339Z,4904.6799
2022-11-04T03:08:54.593Z,4788.4946
2022-11-04T03:23:56.826Z,4708.81915
2022-11-04T03:38:59.091Z,4780.40593
2022-11-04T03:54:01.342Z,5136.11668
2022-11-04T04:09:03.674Z,5231.05414
2022-11-04T04:24:05.896Z,5370.01951
2022-11-04T04:39:08.152Z,5400.7639
2022-11-04T04:54:10.430Z,5660.00055
2022-11-04T05:09:12.602Z,6168.9378
2022-11-04T05:24:14.843Z,6439.13585
2022-11-04T05:39:17.086Z,6457.5019
2022-11-04T05:54:19.447Z,6391.86947
2022-11-04T06:09:21.761Z,6243.79529
2022-11-04T06:24:23.989Z,5817.06119
2022-11-04T06:39:26.421Z,5677.03164
2022-11-04T06:54:28.676Z,5694.16554
2022-11-04T07:09:30.954Z,5626.24309
2022-11-04T07:24:33.296Z,5660.00055
2022-11-04T07:39:35.550Z,5442.30823
2022-11-04T07:54:37.800Z,5044.56381
2022-11-04T08:09:40.078Z,4904.6799
2022-11-04T08:24:42.430Z,4951.88154
2022-11-04T08:39:44.718Z,4616.63999
2022-11-04T08:54:46.921Z,4363.91724
2022-11-04T09:09:49.122Z,4170.96587
2022-11-04T09:24:51.388Z,4039.97195
2022-11-04T09:39:53.953Z,3816.58849
2022-11-04T09:54:56.455Z,3591.37105
2022-11-04T10:09:58.673Z,3449.11688
2022-11-04T10:25:01.150Z,3476.65897
2022-11-04T10:40:03.567Z,3519.90099
2022-11-04T10:55:05.924Z,3665.8036
2022-11-04T11:10:08.343Z,3941.50468
2022-11-04T11:25:10.537Z,3773.33383
2022-11-04T11:40:12.851Z,3630.53289
2022-11-04T11:55:15.110Z,3506.81586
2022-11-04T12:10:24.000Z,3424.07792
2022-11-04T12:25:46.812Z,3298.36879
2022-11-04T12:41:05.060Z,3226.91041
2022-11-04T12:56:21.381Z,3174.42561
2022-11-04T13:11:23.756Z,3151.44815
2022-11-04T13:26:26.103Z,2861.47677
2022-11-04T13:41:28.343Z,3056.15599
2022-11-04T13:56:33.859Z,3097.97531
2022-11-04T14:11:39.042Z,2849.95017
2022-11-04T14:26:41.521Z,2593.95102
2022-11-04T14:41:43.975Z,2582.1173
2022-11-04T14:56:46.251Z,2526.78623
2022-11-04T15:11:48.462Z,2439.65568
2022-11-04T15:26:50.674Z,2390.20321
2022-11-04T15:41:52.937Z,2427.10171
2022-11-04T15:56:55.263Z,2386.17252
2022-11-04T16:11:57.527Z,2398.3056
2022-11-04T16:26:59.860Z,2376.155
2022-11-04T16:42:02.228Z,2378.15177
2022-11-04T16:57:04.467Z,2354.40983
2022-11-04T17:12:06.725Z,2304.56077
2022-11-04T17:27:09.321Z,2258.57992
2022-11-04T17:42:11.546Z,2315.87612
2022-11-04T17:57:13.946Z,2439.65568
2022-11-04T18:12:16.141Z,2390.20321
2022-11-04T18:27:18.673Z,2293.35545
2022-11-04T18:42:20.911Z,2083.94748
2022-11-04T18:57:23.425Z,2019.98622
2022-11-04T19:12:25.763Z,1910.87153
2022-11-04T19:27:28.081Z,1832.90205
2022-11-04T19:42:30.330Z,1792.27409
2022-11-04T19:57:32.604Z,1722.45941
2022-11-04T20:12:34.819Z,1633.94969
2022-11-04T20:27:37.138Z,1600.67923
2022-11-04T20:42:39.379Z,1591.67653
2022-11-04T20:57:41.779Z,1562.67305
2022-11-04T21:12:44.024Z,1566.99939
2022-11-04T21:27:46.393Z,1612.53611
2022-11-04T21:42:48.606Z,1644.39329
2022-11-04T21:57:50.880Z,1607.04195
2022-11-04T22:12:53.341Z,1611.61781
2022-11-04T22:27:55.564Z,1645.34933
2022-11-04T22:42:57.831Z,1543.91757
2022-11-04T22:58:00.157Z,1373.78692
2022-11-04T23:13:02.315Z,1313.83523
2022-11-04T23:28:04.513Z,1355.3645
2022-11-04T23:43:06.800Z,1329.88773
2022-11-04T23:58:09.358Z,1266.78654
